Terminal Aerodrome Forecast
Issued by NWS Sterling, VA

Current Version | Previous Version | Graphics & Text | Print | Product List | Glossary On
Versions: 1 2 3 4 5 6 7 8 9 10 11 12 13 14 15 16 17 18 19 20 21 22 23 24 25 26
000
FTUS41 KLWX 021120
TAFIAD
TAF
KIAD 021120Z 0212/0318 01004KT P6SM -SHRA VCTS SCT050CB BKN070
     FM021300 02004KT P6SM SCT050 BKN070
     FM022300 10004KT P6SM SCT050 BKN120
     FM031000 04004KT 5SM BR SCT015 BKN080
     FM031300 05005KT 6SM -SHRA BR SCT015 BKN060=

USA.gov is the U.S. government's official web portal to all federal, state and local government web resources and services.